Flight Track Log - Related Links

Times and Time Zones

All times are in EDT time to prevent confusion due to time zone crossing. See the EJM918 flight status page for this flight to view local times or setup timezone preferences in your user account.

Time Position Orientation Groundspeed Altitude Reporting Facility
EDT Latitude Longitude Course Direction KTS MPH feet Rate Location/Type
Sun 07:17:14 AM 41.2100 -73.7310 68° East 309 356 10,300  Level FlightAware ADS-B
Sun 07:17:45 AM 41.2260 -73.6740 70° East 356 410 11,000 1,650 Climbing FlightAware ADS-B
Sun 07:18:34 AM 41.2590 -73.5630 68° East 402 463 12,500 1,532 Climbing FlightAware ADS-B
Sun 07:19:19 AM 41.2880 -73.4650 68° East 412 474 13,400 1,778 Climbing FlightAware ADS-B
Sun 07:19:55 AM 41.3130 -73.3780 69° East 424 488 14,900 2,021 Climbing FlightAware ADS-B
Sun 07:20:54 AM 41.3540 -73.2410 68° East 430 495 16,600 3,028 Climbing FlightAware ADS-B
Sun 07:21:44 AM 41.3970 -73.1050 67° East 460 529 20,400 3,038 Climbing FlightAware ADS-B
Sun 07:22:13 AM 41.4280 -73.0350 59° Northeast 465 535 20,600 1,558 Climbing FlightAware ADS-B
Sun 07:23:01 AM 41.4830 -72.9110 59° Northeast 479 551 22,400 864 Climbing FlightAware ADS-B
Sun 07:24:18 AM 41.5570 -72.7450 59° Northeast 479 551 22,400 2,524 Level FlightAware ADS-B
Sun 07:25:07 AM 41.6310 -72.5550 62° Northeast 510 587 27,700 4,040 Climbing FlightAware ADS-B
Sun 07:25:59 AM 41.6690 -72.4590 62° Northeast 521 600 29,200 1,699 Climbing FlightAware ADS-B
Sun 07:27:00 AM 41.7500 -72.2450 63° Northeast 528 608 30,900 1,782 Climbing FlightAware ADS-B
Sun 07:27:40 AM 41.7990 -72.1160 63° Northeast 534 615 32,200 1,920 Climbing FlightAware ADS-B
Sun 07:28:15 AM 41.8340 -72.0240 63° Northeast 535 616 33,300 1,775 Climbing FlightAware ADS-B
Sun 07:28:51 AM 41.8750 -71.9140 63° Northeast 536 617 34,300 1,775 Climbing FlightAware ADS-B
Sun 07:29:26 AM 41.9150 -71.8080 63° Northeast 534 615 35,400 1,953 Climbing FlightAware ADS-B
Sun 07:30:17 AM 41.9720 -71.6530 64° Northeast 526 605 37,100 1,778 Climbing FlightAware ADS-B
Sun 07:30:47 AM 42.0030 -71.5720 63° Northeast 526 605 37,800 1,477 Climbing FlightAware ADS-B
Sun 07:31:22 AM 42.0430 -71.4630 64° Northeast 527 606 38,700 1,371 Climbing FlightAware ADS-B
Sun 07:31:57 AM 42.0810 -71.3590 64° Northeast 529 609 39,400 1,029 Climbing FlightAware ADS-B
Sun 07:32:32 AM 42.1200 -71.2520 64° Northeast 534 615 39,900 857 Climbing FlightAware ADS-B
Sun 07:33:07 AM 42.1590 -71.1470 63° Northeast 541 623 40,400 857 Climbing FlightAware ADS-B
Sun 07:33:42 AM 42.1960 -71.0460 64° Northeast 538 619 40,900 514 Climbing FlightAware ADS-B
Sun 07:34:17 AM 42.2330 -70.9440 64° Northeast 540 621 41,000 83 Climbing FlightAware ADS-B
Sun 07:34:54 AM 42.2760 -70.8250 64° Northeast 538 619 41,000  Level FlightAware ADS-B
Sun 07:35:30 AM 42.3150 -70.7170 64° Northeast 539 620 41,000  Level FlightAware ADS-B
Sun 07:36:06 AM 42.3540 -70.6080 64° Northeast 543 625 41,000  Level FlightAware ADS-B
Sun 07:36:38 AM 42.3900 -70.5060 64° Northeast 545 627 41,000  Level FlightAware ADS-B
Sun 07:37:14 AM 42.4280 -70.3990 64° Northeast 543 625 41,000  Level FlightAware ADS-B
Sun 07:37:50 AM 42.4680 -70.2860 64° Northeast 543 625 41,000  Level FlightAware ADS-B
Sun 07:38:20 AM 42.5000 -70.1970 64° Northeast 543 625 41,000  Level FlightAware ADS-B
Sun 07:38:54 AM 42.5390 -70.0880 64° Northeast 543 625 41,000  Level FlightAware ADS-B
Sun 07:39:34 AM 42.5810 -69.9670 65° Northeast 543 625 41,000  Level FlightAware ADS-B
Sun 07:40:38 AM 42.6420 -69.7940 64° Northeast 543 625 41,000  Level FlightAware ADS-B
Sun 07:41:30 AM 42.7010 -69.6210 65° Northeast 541 623 41,000  Level FlightAware ADS-B
Sun 07:42:01 AM 42.7370 -69.5170 65° Northeast 544 626 41,000  Level FlightAware ADS-B
Sun 07:42:37 AM 42.7750 -69.4050 65° Northeast 544 626 41,000  Level FlightAware ADS-B
Sun 07:42:51 AM 42.7900 -69.3620 65° Northeast 544 626 41,000  Level FlightAware ADS-B
Sun 07:43:59 AM 42.8590 -69.1600 65° Northeast 541 623 41,000  Level FlightAware ADS-B
Sun 07:44:32 AM 42.8950 -69.0540 65° Northeast 541 623 41,000  Level FlightAware ADS-B
Sun 07:45:11 AM 42.9380 -68.9280 65° Northeast 544 626 41,000  Level FlightAware ADS-B
Sun 07:45:41 AM 42.9700 -68.8350 65° Northeast 545 627 41,000  Level FlightAware ADS-B
Sun 07:46:24 AM 43.0100 -68.7160 65° Northeast 545 627 41,000  Level FlightAware ADS-B
Sun 07:47:05 AM 43.0490 -68.5960 66° East 542 624 41,000  Level FlightAware ADS-B
Sun 07:47:41 AM 43.0820 -68.5010 65° Northeast 542 624 41,000  Level FlightAware ADS-B
Sun 07:49:54 AM 43.2320 -68.0400 66° East 41,000  Level FlightAware ADS-B
Sun 07:50:24 AM 43.2620 -67.9500 65° Northeast 539 620 41,000  Level FlightAware ADS-B
Sun 07:50:59 AM 43.2980 -67.8390 66° East 539 620 41,000  Level FlightAware ADS-B
Sun 07:51:39 AM 43.3380 -67.7140 66° East 539 620 41,000  Level FlightAware ADS-B
Sun 07:52:10 AM 43.3690 -67.6170 66° East 539 620 41,000  Level FlightAware ADS-B
Sun 07:52:44 AM 43.4040 -67.5100 66° East 538 619 41,000  Level FlightAware ADS-B
Sun 07:53:24 AM 43.4440 -67.3830 67° East 537 618 41,000  Level FlightAware ADS-B
Sun 07:53:54 AM 43.4720 -67.2920 67° East 538 619 41,000  Level FlightAware ADS-B
Sun 07:54:29 AM 43.5090 -67.1750 66° East 538 619 41,000  Level FlightAware ADS-B
Sun 07:55:09 AM 43.5480 -67.0550 66° East 540 621 41,000  Level FlightAware ADS-B
Sun 07:55:49 AM 43.5960 -66.9310 62° Northeast 539 620 41,000  Level FlightAware ADS-B
Sun 07:56:24 AM 43.6390 -66.8280 60° Northeast 536 617 41,000  Level FlightAware ADS-B
Sun 07:56:59 AM 43.6840 -66.7240 59° Northeast 540 621 41,000  Level FlightAware ADS-B
Sun 07:57:39 AM 43.7340 -66.6050 60° Northeast 539 620 41,000  Level FlightAware ADS-B
Sun 07:58:14 AM 43.7800 -66.4990 59° Northeast 539 620 41,000  Level FlightAware ADS-B
Sun 07:58:49 AM 43.8200 -66.4030 60° Northeast 540 621 41,000  Level FlightAware ADS-B
Sun 07:59:29 AM 43.8710 -66.2830 59° Northeast 542 624 41,000  Level FlightAware ADS-B
Sun 07:59:59 AM 43.9110 -66.1890 59° Northeast 543 625 41,000  Level FlightAware ADS-B
Sun 08:01:10 AM 43.9980 -65.9800 60° Northeast 542 624 41,000  Level FlightAware ADS-B
Sun 08:01:44 AM 44.0420 -65.8750 60° Northeast 535 616 41,000  Level FlightAware ADS-B
Sun 08:02:19 AM 44.0840 -65.7740 60° Northeast 534 615 41,000  Level FlightAware ADS-B
Sun 08:03:00 AM 44.1390 -65.6410 60° Northeast 542 624 41,000  Level FlightAware ADS-B
Sun 08:04:03 AM 44.2160 -65.4530 60° Northeast 547 629 41,000  Level FlightAware ADS-B
Sun 08:04:35 AM 44.2580 -65.3520 60° Northeast 549 632 41,000  Level FlightAware ADS-B
Sun 08:05:09 AM 44.2990 -65.2510 60° Northeast 550 633 41,000  Level FlightAware ADS-B
Sun 08:05:43 AM 44.3430 -65.1440 60° Northeast 549 632 41,000  Level FlightAware ADS-B
Sun 08:06:14 AM 44.3800 -65.0500 61° Northeast 547 629 41,000  Level FlightAware ADS-B
Sun 08:06:57 AM 44.4340 -64.9160 61° Northeast 548 631 41,000  Level FlightAware ADS-B
Sun 08:07:31 AM 44.4760 -64.8110 61° Northeast 550 633 41,000  Level FlightAware ADS-B
Sun 08:08:07 AM 44.5210 -64.6980 61° Northeast 548 631 41,000  Level FlightAware ADS-B
Sun 08:08:43 AM 44.5660 -64.5870 60° Northeast 547 629 41,000  Level FlightAware ADS-B
Sun 08:09:16 AM 44.6070 -64.4830 61° Northeast 548 631 41,000  Level FlightAware ADS-B
Sun 08:09:51 AM 44.6490 -64.3770 61° Northeast 550 633 41,000  Level FlightAware ADS-B
Sun 08:10:27 AM 44.6930 -64.2650 61° Northeast 554 638 41,000  Level FlightAware ADS-B
Sun 08:10:58 AM 44.7330 -64.1630 61° Northeast 555 639 41,000  Level FlightAware ADS-B
Sun 08:11:35 AM 44.7780 -64.0480 61° Northeast 554 638 41,000  Level FlightAware ADS-B
Sun 08:12:10 AM 44.8210 -63.9370 61° Northeast 551 634 41,000  Level FlightAware ADS-B
Sun 08:12:45 AM 44.8620 -63.8310 61° Northeast 551 634 41,000  Level FlightAware ADS-B
Sun 08:13:29 AM 44.9170 -63.6900 61° Northeast 553 636 41,000  Level FlightAware ADS-B
Sun 08:14:09 AM 44.9650 -63.5640 62° Northeast 553 636 41,000  Level FlightAware ADS-B
Sun 08:14:39 AM 45.0020 -63.4670 62° Northeast 553 636 41,000  Level FlightAware ADS-B
Sun 08:15:21 AM 45.0470 -63.3470 62° Northeast 552 635 41,000  Level FlightAware ADS-B
Sun 08:16:13 AM 45.1070 -63.1910 61° Northeast 555 639 41,000  Level FlightAware ADS-B
Sun 08:16:52 AM 45.1470 -63.0840 62° Northeast 555 639 41,000  Level FlightAware ADS-B
Sun 08:17:28 AM 45.1840 -62.9860 62° Northeast 555 639 41,000  Level FlightAware ADS-B
Sun 08:18:04 AM 45.2200 -62.8870 63° Northeast 555 639 41,000  Level FlightAware ADS-B
Sun 08:18:40 AM 45.2570 -62.7890 62° Northeast 555 639 41,000  Level FlightAware ADS-B
Sun 08:19:17 AM 45.2950 -62.6870 62° Northeast 555 639 41,000  Level FlightAware ADS-B
Sun 08:19:53 AM 45.3320 -62.5890 62° Northeast 555 639 41,000 581 Level FlightAware ADS-B
Sun 08:26:10 AM 45.7960 -61.3030 62° Northeast 527 606 45,000 578 Climbing FlightAware ADS-B
Sun 08:26:48 AM 45.8380 -61.1850 63° Northeast 529 609 45,000  Level FlightAware ADS-B
Sun 08:27:20 AM 45.8740 -61.0820 63° Northeast 527 606 45,000  Level FlightAware ADS-B
Sun 08:27:56 AM 45.9130 -60.9710 63° Northeast 526 605 45,000  Level FlightAware ADS-B
Sun 08:28:32 AM 45.9520 -60.8580 64° Northeast 526 605 45,000  Level FlightAware ADS-B
Sun 08:29:08 AM 45.9910 -60.7450 64° Northeast 528 608 45,000  Level FlightAware ADS-B
Sun 08:29:40 AM 46.0260 -60.6450 63° Northeast 531 611 45,000  Level FlightAware ADS-B
Sun 08:30:18 AM 46.0670 -60.5250 64° Northeast 532 612 45,000  Level FlightAware ADS-B
Sun 08:30:50 AM 46.1020 -60.4220 64° Northeast 530 610 45,000  Level FlightAware ADS-B
Sun 08:31:26 AM 46.1410 -60.3080 64° Northeast 528 608 45,000  Level FlightAware ADS-B
Sun 08:32:02 AM 46.1780 -60.1960 64° Northeast 528 608 45,000  Level FlightAware ADS-B
Sun 08:32:34 AM 46.2120 -60.0950 64° Northeast 528 608 45,000  Level FlightAware ADS-B
Sun 08:33:10 AM 46.2510 -59.9800 64° Northeast 528 608 45,000  Level FlightAware ADS-B
Sun 08:33:46 AM 46.2890 -59.8660 64° Northeast 528 608 45,000  Level FlightAware ADS-B
Sun 08:34:22 AM 46.3270 -59.7520 64° Northeast 530 610 45,000  Level FlightAware ADS-B
Sun 08:34:54 AM 46.3610 -59.6490 64° Northeast 530 610 45,000  Level FlightAware ADS-B
Sun 08:35:30 AM 46.4000 -59.5340 64° Northeast 530 610 45,000  Level FlightAware ADS-B
Sun 08:36:06 AM 46.4360 -59.4230 65° Northeast 531 611 45,000  Level FlightAware ADS-B
Sun 08:36:42 AM 46.4750 -59.3040 65° Northeast 531 611 45,000  Level FlightAware ADS-B
Sun 08:37:14 AM 46.5090 -59.2010 64° Northeast 530 610 45,000  Level FlightAware ADS-B
Sun 08:37:50 AM 46.5450 -59.0890 65° Northeast 527 606 45,000  Level FlightAware ADS-B
Sun 08:38:26 AM 46.5830 -58.9710 65° Northeast 526 605 45,000  Level FlightAware ADS-B
Sun 08:39:00 AM 46.6180 -58.8630 65° Northeast 526 605 45,000  Level FlightAware ADS-B
Sun 08:39:36 AM 46.6550 -58.7470 65° Northeast 528 608 45,000  Level FlightAware ADS-B
Sun 08:40:12 AM 46.6920 -58.6300 65° Northeast 528 608 45,000  Level FlightAware ADS-B
Sun 08:40:46 AM 46.7260 -58.5240 65° Northeast 527 606 45,000  Level FlightAware ADS-B
Sun 08:41:22 AM 46.7640 -58.4050 65° Northeast 528 608 45,000  Level FlightAware ADS-B
Sun 08:41:54 AM 46.7960 -58.3020 66° East 528 608 45,000  Level FlightAware ADS-B
Sun 08:42:30 AM 46.8330 -58.1860 65° Northeast 527 606 45,000  Level FlightAware ADS-B
Sun 08:43:00 AM 46.8630 -58.0880 66° East 527 606 45,000  Level FlightAware ADS-B
Sun 08:43:40 AM 46.9030 -57.9600 65° Northeast 527 606 45,000  Level FlightAware ADS-B
Sun 08:44:13 AM 46.9350 -57.8560 66° East 527 606 45,000  Level FlightAware ADS-B
Sun 08:44:53 AM 46.9760 -57.7250 65° Northeast 528 608 45,000  Level FlightAware ADS-B
Sun 08:45:23 AM 47.0050 -57.6270 67° East 528 608 45,000  Level FlightAware ADS-B
Sun 08:45:57 AM 47.0380 -57.5200 66° East 527 606 45,000  Level FlightAware ADS-B
Sun 08:46:30 AM 47.0720 -57.4090 66° East 525 604 45,000  Level FlightAware ADS-B
Sun 08:47:09 AM 47.1110 -57.2800 66° East 523 602 45,000  Level FlightAware ADS-B
Sun 08:47:44 AM 47.1430 -57.1740 66° East 522 601 45,000  Level FlightAware ADS-B
Sun 08:48:15 AM 47.1740 -57.0700 66° East 523 602 45,000  Level FlightAware ADS-B
Sun 08:48:54 AM 47.2130 -56.9390 66° East 524 603 45,000  Level FlightAware ADS-B
Sun 08:49:35 AM 47.2510 -56.8120 66° East 525 604 45,000  Level FlightAware ADS-B
Sun 08:50:25 AM 47.2980 -56.6510 67° East 525 604 45,000  Level FlightAware ADS-B
Sun 08:50:59 AM 47.3330 -56.5330 66° East 526 605 45,000  Level FlightAware ADS-B
Sun 08:51:35 AM 47.3670 -56.4150 67° East 528 608 45,000  Level FlightAware ADS-B
Sun 08:52:10 AM 47.4020 -56.2950 67° East 530 610 45,000  Level FlightAware ADS-B
Sun 08:52:46 AM 47.4350 -56.1790 67° East 530 610 45,000  Level FlightAware ADS-B
Sun 08:53:30 AM 47.4770 -56.0340 67° East 530 610 45,000  Level FlightAware ADS-B
Sun 08:54:00 AM 47.5070 -55.9310 67° East 531 611 45,000  Level FlightAware ADS-B
Sun 08:54:35 AM 47.5390 -55.8200 67° East 531 611 45,000  Level FlightAware ADS-B
Sun 08:55:12 AM 47.5760 -55.6900 67° East 530 610 45,000  Level FlightAware ADS-B
Sun 08:55:48 AM 47.6090 -55.5720 67° East 530 610 45,000  Level FlightAware ADS-B
Sun 08:56:26 AM 47.6450 -55.4440 67° East 529 609 45,000  Level FlightAware ADS-B
Sun 08:56:58 AM 47.6740 -55.3360 68° East 526 605 45,000  Level FlightAware ADS-B
Sun 08:57:34 AM 47.7080 -55.2160 67° East 521 600 45,000  Level FlightAware ADS-B
Sun 08:58:08 AM 47.7380 -55.1080 68° East 520 598 45,000  Level FlightAware ADS-B
Sun 08:58:44 AM 47.7720 -54.9860 67° East 522 601 45,000  Level FlightAware ADS-B
Sun 08:59:16 AM 47.8000 -54.8820 68° East 523 602 45,000  Level FlightAware ADS-B
Sun 08:59:53 AM 47.8330 -54.7590 68° East 524 603 45,000  Level FlightAware ADS-B
Sun 08:59:56 AM 47.8370 -54.7450 67° East 524 603 45,000  Level FlightAware ADS-B
Sun 09:01:35 AM 47.9140 -54.4610 68° East 526 605 45,000  Level FlightAware ADS-B
Sun 09:02:03 AM 47.9400 -54.3610 69° East 526 605 45,000  Level FlightAware ADS-B
Sun 09:02:44 AM 47.9870 -54.1860 68° East 525 604 45,000  Level FlightAware ADS-B
Sun 09:03:20 AM 48.0200 -54.0620 68° East 523 602 45,000  Level FlightAware ADS-B
Sun 09:03:58 AM 48.0530 -53.9380 68° East 522 601 45,000  Level FlightAware ADS-B
Sun 09:04:14 AM 48.0670 -53.8830 69° East 524 603 45,000  Level FlightAware ADS-B
Sun 09:05:10 AM 48.1170 -53.6910 69° East 532 612 45,000  Level FlightAware ADS-B
Sun 09:05:50 AM 48.1530 -53.5540 68° East 533 613 45,000  Level FlightAware ADS-B
Sun 09:06:20 AM 48.1790 -53.4520 69° East 530 610 45,000  Level FlightAware ADS-B
Sun 09:07:01 AM 48.2140 -53.3140 69° East 525 604 45,000  Level FlightAware ADS-B
Sun 09:07:40 AM 48.2480 -53.1800 69° East 524 603 45,000  Level FlightAware ADS-B
Sun 09:08:15 AM 48.2790 -53.0600 69° East 526 605 45,000  Level FlightAware ADS-B
Sun 09:08:50 AM 48.3090 -52.9410 69° East 529 609 45,000  Level FlightAware ADS-B
Sun 09:09:28 AM 48.3390 -52.8200 70° East 529 609 45,000  Level FlightAware ADS-B
Sun 09:10:00 AM 48.3690 -52.7000 69° East 527 606 45,000  Level FlightAware ADS-B
Sun 09:10:40 AM 48.4030 -52.5630 69° East 520 598 45,000  Level FlightAware ADS-B
Sun 09:11:18 AM 48.4340 -52.4360 70° East 517 595 45,000  Level FlightAware ADS-B
Sun 09:12:17 AM 48.4810 -52.2450 70° East 525 604 45,000  Level FlightAware ADS-B
Sun 09:12:50 AM 48.5110 -52.1220 70° East 525 604 45,000  Level FlightAware ADS-B
Sun 09:13:25 AM 48.5400 -52.0020 70° East 524 603 45,000  Level FlightAware ADS-B
Sun 09:14:00 AM 48.5680 -51.8830 70° East 522 601 45,000  Level FlightAware ADS-B
Sun 09:14:35 AM 48.5970 -51.7630 70° East 520 598 45,000  Level FlightAware ADS-B
Sun 09:15:10 AM 48.6250 -51.6460 70° East 516 594 45,000  Level FlightAware ADS-B
Sun 09:15:45 AM 48.6520 -51.5290 71° East 517 595 45,000  Level FlightAware ADS-B
Sun 09:16:20 AM 48.6810 -51.4060 70° East 520 598 45,000  Level FlightAware ADS-B
Sun 09:16:55 AM 48.7080 -51.2890 71° East 524 603 45,000  Level FlightAware ADS-B
Sun 09:17:30 AM 48.7360 -51.1730 70° East 523 602 45,000  Level FlightAware ADS-B
Sun 09:18:05 AM 48.7650 -51.0440 71° East 521 600 45,000  Level FlightAware ADS-B
Sun 09:18:50 AM 48.8010 -50.8900 70° East 521 600 45,000  Level FlightAware ADS-B
Sun 09:19:21 AM 48.8230 -50.7920 71° East 521 600 45,000  Level FlightAware ADS-B
Sun 09:19:55 AM 48.8510 -50.6680 71° East 523 602 45,000  Level FlightAware ADS-B
Sun 09:20:58 AM 48.8990 -50.4540 71° East 520 598 45,000  Level FlightAware ADS-B
Sun 09:21:37 AM 48.9280 -50.3250 71° East 522 601 45,000  Level FlightAware ADS-B
Sun 09:22:18 AM 48.9620 -50.1720 71° East 524 603 45,000  Level FlightAware ADS-B
Sun 09:22:38 AM 48.9780 -50.1020 71° East 524 603 45,000  Level FlightAware ADS-B
Sun 09:24:09 AM 49.0280 -49.8050 75° East 525 604 45,000  Level FlightAware ADS-B
Sun 09:24:45 AM 49.0450 -49.6880 77° East 527 606 45,000  Level FlightAware ADS-B
Sun 09:25:21 AM 49.0620 -49.5770 77° East 527 606 45,000  Level FlightAware ADS-B
Sun 09:25:58 AM 49.0790 -49.4630 77° East 527 606 45,000  Level FlightAware ADS-B
Sun 09:26:34 AM 49.0960 -49.3520 77° East 527 606 45,000  Level FlightAware ADS-B
Sun 09:27:10 AM 49.1130 -49.2410 77° East 527 606 45,000  Level FlightAware ADS-B
Sun 09:27:46 AM 49.1300 -49.1300 77° East 527 606 45,000  Level FlightAware ADS-B
Sun 09:28:22 AM 49.1460 -49.0190 78° East 527 606 45,000  Level FlightAware ADS-B
Sun 09:28:58 AM 49.1630 -48.9080 77° East 527 606 45,000  Level FlightAware ADS-B
Sun 09:29:46 AM 49.1850 -48.7600 77° East 527 606 45,000  Level FlightAware ADS-B
Sun 09:30:22 AM 49.2020 -48.6480 77° East 527 606 45,000  Level FlightAware ADS-B
Sun 09:30:58 AM 49.2190 -48.5370 77° East 527 606 45,000  Level FlightAware ADS-B
Sun 09:31:34 AM 49.2360 -48.4260 77° East 527 606 45,000  Level FlightAware ADS-B
Sun 09:32:10 AM 49.2520 -48.3140 78° East 527 606 45,000  Level FlightAware ADS-B
Sun 09:32:47 AM 49.2700 -48.2000 76° East 527 606 45,000  Level FlightAware ADS-B
Sun 09:33:00 AM 49.0000 -50.0000 77° East 525 604 45,000  Level ETMS Enhanced Traffic Management System
Sun 09:33:23 AM 49.2860 -48.0890 77° East 527 606 45,000  Level FlightAware ADS-B
Sun 09:33:59 AM 49.3030 -47.9770 77° East 527 606 45,000  Level FlightAware ADS-B
Sun 09:36:00 AM 49.3163 -47.5475 87° East  Level FlightAware Approximate
Sun 09:37:00 AM 49.3413 -47.3341 79° East  Level FlightAware Approximate
Sun 09:38:00 AM 49.3669 -47.1244 79° East  Level FlightAware Approximate
Sun 09:39:00 AM 49.4788 -46.2719 80° East 525 604 45,000  Level FlightAware Transoceanic
Sun 09:40:00 AM 49.5033 -46.0504 80° East 525 604 45,000  Level FlightAware Transoceanic
Sun 09:41:00 AM 49.5272 -45.8288 81° East 525 604 45,000  Level FlightAware Transoceanic
Sun 09:42:00 AM 49.5508 -45.6069 81° East 525 604 45,000  Level FlightAware Transoceanic
Sun 09:43:00 AM 49.5739 -45.3848 81° East 525 604 45,000  Level FlightAware Transoceanic
Sun 09:44:00 AM 49.5966 -45.1624 81° East 525 604 45,000  Level FlightAware Transoceanic
Sun 09:45:00 AM 49.6189 -44.9399 81° East 525 604 45,000  Level FlightAware Transoceanic
Sun 09:46:00 AM 49.6408 -44.7172 81° East 525 604 45,000  Level FlightAware Transoceanic
Sun 09:47:00 AM 49.6622 -44.4943 82° East 525 604 45,000  Level FlightAware Transoceanic
Sun 09:48:00 AM 49.6832 -44.2712 82° East 525 604 45,000  Level FlightAware Transoceanic
Sun 09:49:00 AM 49.7038 -44.0479 82° East 525 604 45,000  Level FlightAware Transoceanic
Sun 09:50:00 AM 49.7239 -43.8244 82° East 525 604 45,000  Level FlightAware Transoceanic
Sun 09:51:00 AM 49.7436 -43.6007 82° East 525 604 45,000  Level FlightAware Transoceanic
Sun 09:52:00 AM 49.7629 -43.3768 82° East 525 604 45,000  Level FlightAware Transoceanic
Sun 09:53:00 AM 49.7818 -43.1528 83° East 525 604 45,000  Level FlightAware Transoceanic
Sun 09:54:00 AM 49.8002 -42.9286 83° East 525 604 45,000  Level FlightAware Transoceanic
Sun 09:55:00 AM 49.8182 -42.7042 83° East 525 604 45,000  Level FlightAware Transoceanic
Sun 09:56:00 AM 49.8357 -42.4797 83° East 525 604 45,000  Level FlightAware Transoceanic
Sun 09:57:00 AM 49.8528 -42.2550 83° East 525 604 45,000  Level FlightAware Transoceanic
Sun 09:58:00 AM 49.8695 -42.0301 84° East 525 604 45,000  Level FlightAware Transoceanic
Sun 09:59:00 AM 49.8858 -41.8051 84° East 525 604 45,000  Level FlightAware Transoceanic
Sun 10:00:00 AM 49.9016 -41.5800 84° East 525 604 45,000  Level FlightAware Transoceanic
Sun 10:01:00 AM 49.9169 -41.3547 84° East 525 604 45,000  Level FlightAware Transoceanic
Sun 10:02:00 AM 49.9319 -41.1292 84° East 525 604 45,000  Level FlightAware Transoceanic
Sun 10:03:00 AM 49.9464 -40.9036 84° East 525 604 45,000  Level FlightAware Transoceanic
Sun 10:04:00 AM 49.9604 -40.6779 85° East 525 604 45,000  Level FlightAware Transoceanic
Sun 10:05:00 AM 49.9741 -40.4521 85° East 525 604 45,000  Level FlightAware Transoceanic
Sun 10:06:00 AM 49.9873 -40.2261 85° East 525 604 45,000  Level FlightAware Transoceanic
Sun 10:07:00 AM 49.9994 -40.0107 85° East  Level FlightAware Approximate
Sun 10:08:00 AM 50.0111 -39.7952 85° East  Level FlightAware Approximate
Sun 10:09:00 AM 50.0082 -39.8056 86° East  Level FlightAware Approximate
Sun 10:10:00 AM 50.0169 -39.5897 86° East  Level FlightAware Approximate
Sun 10:11:00 AM 50.0253 -39.3737 86° East  Level FlightAware Approximate
Sun 10:12:00 AM 50.0332 -39.1576 87° East  Level FlightAware Approximate
Sun 10:13:00 AM 50.0407 -38.9415 87° East  Level FlightAware Approximate
Sun 10:14:00 AM 50.0479 -38.7253 87° East  Level FlightAware Approximate
Sun 10:15:00 AM 50.0546 -38.5091 87° East  Level FlightAware Approximate
Sun 10:16:00 AM 50.0609 -38.2928 87° East  Level FlightAware Approximate
Sun 10:17:00 AM 50.0669 -38.0764 87° East  Level FlightAware Approximate
Sun 10:18:00 AM 50.0724 -37.8600 88° East  Level FlightAware Approximate
Sun 10:19:00 AM 50.0775 -37.6435 88° East  Level FlightAware Approximate
Sun 10:20:00 AM 50.0822 -37.4270 88° East  Level FlightAware Approximate
Sun 10:21:00 AM 50.0865 -37.2104 88° East  Level FlightAware Approximate
Sun 10:22:00 AM 50.0905 -36.9939 88° East  Level FlightAware Approximate
Sun 10:23:00 AM 50.0940 -36.7772 88° East  Level FlightAware Approximate
Sun 10:24:00 AM 50.0971 -36.5606 89° East  Level FlightAware Approximate
Sun 10:25:00 AM 50.0998 -36.3439 89° East  Level FlightAware Approximate
Sun 10:26:00 AM 50.1021 -36.1272 89° East  Level FlightAware Approximate
Sun 10:27:00 AM 50.1040 -35.9105 89° East  Level FlightAware Approximate
Sun 10:28:00 AM 50.1055 -35.6938 89° East  Level FlightAware Approximate
Sun 10:29:00 AM 50.1065 -35.4770 89° East  Level FlightAware Approximate
Sun 10:30:00 AM 50.1072 -35.2603 90° East  Level FlightAware Approximate
Sun 10:31:00 AM 50.1075 -35.0435 90° East  Level FlightAware Approximate
Sun 10:32:00 AM 50.1074 -34.8267 90° East  Level FlightAware Approximate
Sun 10:33:00 AM 50.1069 -34.6100 90° East  Level FlightAware Approximate
Sun 10:34:00 AM 50.1059 -34.3932 90° East  Level FlightAware Approximate
Sun 10:35:00 AM 50.1046 -34.1765 90° East  Level FlightAware Approximate
Sun 10:36:00 AM 50.1029 -33.9598 91° East  Level FlightAware Approximate
Sun 10:37:00 AM 50.1007 -33.7430 91° East  Level FlightAware Approximate
Sun 10:38:00 AM 50.0982 -33.5264 91° East  Level FlightAware Approximate
Sun 10:39:00 AM 50.0953 -33.3097 91° East  Level FlightAware Approximate
Sun 10:40:00 AM 50.0919 -33.0931 91° East  Level FlightAware Approximate
Sun 10:41:00 AM 50.0882 -32.8765 91° East  Level FlightAware Approximate
Sun 10:42:00 AM 50.0840 -32.6599 92° East  Level FlightAware Approximate
Sun 10:43:00 AM 50.0794 -32.4434 92° East  Level FlightAware Approximate
Sun 10:44:00 AM 50.0745 -32.2269 92° East  Level FlightAware Approximate
Sun 10:45:00 AM 50.0691 -32.0104 92° East  Level FlightAware Approximate
Sun 10:46:00 AM 50.0634 -31.7941 92° East  Level FlightAware Approximate
Sun 10:47:00 AM 50.0572 -31.5777 92° East  Level FlightAware Approximate
Sun 10:48:00 AM 50.0506 -31.3615 93° East  Level FlightAware Approximate
Sun 10:49:00 AM 50.0437 -31.1452 93° East  Level FlightAware Approximate
Sun 10:50:00 AM 50.0363 -30.9291 93° East  Level FlightAware Approximate
Sun 10:51:00 AM 50.0285 -30.7130 93° East  Level FlightAware Approximate
Sun 10:52:00 AM 50.0203 -30.4970 93° East  Level FlightAware Approximate
Sun 10:53:00 AM 50.0118 -30.2811 93° East  Level FlightAware Approximate
Sun 10:54:00 AM 50.0028 -30.0652 94° East  Level FlightAware Approximate
Sun 10:55:00 AM 50.0064 -29.8494 86° East  Level FlightAware Approximate
Sun 10:56:00 AM 50.0152 -29.6335 86° East  Level FlightAware Approximate
Sun 10:57:00 AM 50.0236 -29.4176 86° East  Level FlightAware Approximate
Sun 10:58:00 AM 50.0316 -29.2015 87° East  Level FlightAware Approximate
Sun 10:59:00 AM 50.0392 -28.9854 87° East  Level FlightAware Approximate
Sun 11:00:00 AM 50.0465 -28.7692 87° East  Level FlightAware Approximate
Sun 11:01:00 AM 50.0533 -28.5530 87° East  Level FlightAware Approximate
Sun 11:02:00 AM 50.0597 -28.3367 87° East  Level FlightAware Approximate
Sun 11:03:00 AM 50.0657 -28.1203 87° East  Level FlightAware Approximate
Sun 11:04:00 AM 50.0713 -27.9039 88° East  Level FlightAware Approximate
Sun 11:05:00 AM 50.0765 -27.6875 88° East  Level FlightAware Approximate
Sun 11:06:00 AM 50.0813 -27.4710 88° East  Level FlightAware Approximate
Sun 11:07:00 AM 50.0857 -27.2544 88° East  Level FlightAware Approximate
Sun 11:08:00 AM 50.0897 -27.0378 88° East  Level FlightAware Approximate
Sun 11:09:00 AM 50.0933 -26.8212 88° East  Level FlightAware Approximate
Sun 11:10:00 AM 50.0965 -26.6046 89° East  Level FlightAware Approximate
Sun 11:11:00 AM 50.0993 -26.3879 89° East  Level FlightAware Approximate
Sun 11:12:00 AM 50.1016 -26.1712 89° East  Level FlightAware Approximate
Sun 11:13:00 AM 50.1036 -25.9545 89° East  Level FlightAware Approximate
Sun 11:14:00 AM 50.1052 -25.7378 89° East  Level FlightAware Approximate
Sun 11:15:00 AM 50.1064 -25.5210 89° East  Level FlightAware Approximate
Sun 11:16:00 AM 50.1071 -25.3043 90° East  Level FlightAware Approximate
Sun 11:17:00 AM 50.1075 -25.0875 90° East  Level FlightAware Approximate
Sun 11:18:00 AM 50.1074 -24.8708 90° East  Level FlightAware Approximate
Sun 11:19:00 AM 50.1070 -24.6540 90° East  Level FlightAware Approximate
Sun 11:20:00 AM 50.1062 -24.4373 90° East  Level FlightAware Approximate
Sun 11:21:00 AM 50.1049 -24.2205 90° East  Level FlightAware Approximate
Sun 11:22:00 AM 50.1033 -24.0038 91° East  Level FlightAware Approximate
Sun 11:23:00 AM 50.1012 -23.7871 91° East  Level FlightAware Approximate
Sun 11:24:00 AM 50.0987 -23.5704 91° East  Level FlightAware Approximate
Sun 11:25:00 AM 50.0959 -23.3537 91° East  Level FlightAware Approximate
Sun 11:26:00 AM 50.0926 -23.1371 91° East  Level FlightAware Approximate
Sun 11:27:00 AM 50.0889 -22.9205 91° East  Level FlightAware Approximate
Sun 11:28:00 AM 50.0849 -22.7039 92° East  Level FlightAware Approximate
Sun 11:29:00 AM 50.0804 -22.4874 92° East  Level FlightAware Approximate
Sun 11:30:00 AM 50.0755 -22.2709 92° East  Level FlightAware Approximate
Sun 11:31:00 AM 50.0702 -22.0544 92° East  Level FlightAware Approximate
Sun 11:32:00 AM 50.0646 -21.8380 92° East  Level FlightAware Approximate
Sun 11:33:00 AM 50.0585 -21.6217 92° East  Level FlightAware Approximate
Sun 11:34:00 AM 50.0520 -21.4054 93° East  Level FlightAware Approximate
Sun 11:35:00 AM 50.0451 -21.1892 93° East  Level FlightAware Approximate
Sun 11:36:00 AM 50.0378 -20.9730 93° East  Level FlightAware Approximate
Sun 11:37:00 AM 50.0301 -20.7569 93° East  Level FlightAware Approximate
Sun 11:38:00 AM 50.0220 -20.5409 93° East  Level FlightAware Approximate
Sun 11:39:00 AM 50.0135 -20.3249 93° East  Level FlightAware Approximate
Sun 11:40:00 AM 50.0047 -20.1091 94° East  Level FlightAware Approximate
Sun 11:41:00 AM 50.0009 -19.8930 89° East  Level FlightAware Approximate
Sun 11:42:00 AM 50.0023 -19.6768 89° East  Level FlightAware Approximate
Sun 11:43:00 AM 50.0033 -19.4605 89° East  Level FlightAware Approximate
Sun 11:44:00 AM 50.0039 -19.2442 90° East  Level FlightAware Approximate
Sun 11:45:00 AM 50.0042 -19.0279 90° East  Level FlightAware Approximate
Sun 11:46:00 AM 50.0040 -18.8116 90° East  Level FlightAware Approximate
Sun 11:47:00 AM 50.0034 -18.5953 90° East  Level FlightAware Approximate
Sun 11:48:00 AM 50.0024 -18.3790 90° East  Level FlightAware Approximate
Sun 11:49:00 AM 50.0010 -18.1628 90° East  Level FlightAware Approximate
Sun 11:50:00 AM 49.9993 -17.9465 91° East  Level FlightAware Approximate
Sun 11:51:00 AM 49.9971 -17.7303 91° East  Level FlightAware Approximate
Sun 11:52:00 AM 49.9945 -17.5141 91° East  Level FlightAware Approximate
Sun 11:53:00 AM 49.9915 -17.2979 91° East  Level FlightAware Approximate
Sun 11:54:00 AM 49.9881 -17.0817 91° East  Level FlightAware Approximate
Sun 11:55:00 AM 49.9843 -16.8656 91° East  Level FlightAware Approximate
Sun 11:56:00 AM 49.9801 -16.6495 92° East  Level FlightAware Approximate
Sun 11:57:00 AM 49.9755 -16.4334 92° East  Level FlightAware Approximate
Sun 11:58:00 AM 49.9705 -16.2174 92° East  Level FlightAware Approximate
Sun 11:59:00 AM 49.9651 -16.0014 92° East  Level FlightAware Approximate
Sun 12:00:00 PM 49.9593 -15.7855 92° East  Level FlightAware Approximate
Sun 12:01:00 PM 49.9531 -15.5697 92° East  Level FlightAware Approximate
Sun 12:02:00 PM 49.9461 -15.3539 93° East  Level FlightAware Approximate
Sun 12:03:00 PM 49.9385 -15.1382 93° East  Level FlightAware Approximate
Sun 12:04:00 PM 49.9309 -14.9225 93° East  Level FlightAware Approximate
Sun 12:05:00 PM 49.9238 -14.7069 93° East  Level FlightAware Approximate
Sun 12:06:00 PM 49.9163 -14.4913 93° East  Level FlightAware Approximate
Sun 12:07:00 PM 49.9084 -14.2757 93° East  Level FlightAware Approximate
Sun 12:08:00 PM 49.9000 -14.0603 93° East  Level FlightAware Approximate
Sun 12:09:00 PM 49.8913 -13.8449 94° East  Level FlightAware Approximate
Sun 12:10:00 PM 49.8822 -13.6296 94° East  Level FlightAware Approximate
Sun 12:11:00 PM 49.8727 -13.4144 94° East  Level FlightAware Approximate
Sun 12:12:00 PM 49.8628 -13.1993 94° East  Level FlightAware Approximate
Sun 12:13:00 PM 49.8525 -12.9842 94° East  Level FlightAware Approximate
Sun 12:14:00 PM 49.8418 -12.7693 94° East  Level FlightAware Approximate
Sun 12:15:00 PM 49.8307 -12.5544 94° East  Level FlightAware Approximate
Sun 12:16:00 PM 49.8192 -12.3397 95° East  Level FlightAware Approximate
Sun 12:17:00 PM 49.8073 -12.1250 95° East  Level FlightAware Approximate
Sun 12:18:00 PM 49.7950 -11.9105 95° East  Level FlightAware Approximate
Sun 12:19:00 PM 49.7823 -11.6960 95° East  Level FlightAware Approximate
Sun 12:20:00 PM 49.7693 -11.4817 95° East  Level FlightAware Approximate
Sun 12:21:00 PM 49.7558 -11.2675 95° East  Level FlightAware Approximate
Sun 12:22:00 PM 49.7419 -11.0534 96° East  Level FlightAware Approximate
Sun 12:23:00 PM 49.7276 -10.8395 96° East  Level FlightAware Approximate
Sun 12:24:00 PM 49.7130 -10.6257 96° East  Level FlightAware Approximate
Sun 12:25:00 PM 49.6979 -10.4120 96° East  Level FlightAware Approximate
Sun 12:25:04 PM 49.3770 -10.0700 96° East 503 579 45,000  Level FlightAware ADS-B
Sun 12:25:39 PM 49.3580 -9.9440 103° East 504 580 45,000  Level FlightAware ADS-B
Sun 12:26:00 PM 49.6825 -10.1984 96° East  Level FlightAware Approximate
Sun 12:26:45 PM 49.3260 -9.7350 103° East 507 583 45,000  Level FlightAware ADS-B
Sun 12:27:29 PM 49.3020 -9.5780 103° East 509 586 45,000  Level FlightAware ADS-B
Sun 12:28:21 PM 49.2740 -9.3980 103° East 508 585 45,000  Level FlightAware ADS-B
Sun 12:28:53 PM 49.2540 -9.2710 104° East 508 585 45,000  Level FlightAware ADS-B
Sun 12:29:31 PM 49.2330 -9.1350 103° East 508 585 45,000  Level FlightAware ADS-B
Sun 12:30:06 PM 49.2150 -9.0200 103° East 507 583 45,000  Level FlightAware ADS-B
Sun 12:30:39 PM 49.1950 -8.8990 104° East 506 582 45,000  Level FlightAware ADS-B
Sun 12:31:14 PM 49.1768 -8.7786 104° East 484 557 45,000  Level FlightAware UK
Sun 12:31:17 PM 49.1760 -8.7800 104° East 504 580 45,000  Level FlightAware ADS-B
Sun 12:31:43 PM 49.1600 -8.6800 104° East 504 580 45,000  Level FlightAware ADS-B
Sun 12:32:14 PM 49.1420 -8.5707 104° East 482 555 45,000  Level FlightAware UK
Sun 12:32:25 PM 49.1360 -8.5340 104° East 504 580 45,000  Level FlightAware ADS-B
Sun 12:33:01 PM 49.1160 -8.4160 104° East 505 581 45,000  Level FlightAware ADS-B
Sun 12:33:34 PM 49.0970 -8.2990 104° East 503 579 45,000  Level FlightAware ADS-B
Sun 12:34:10 PM 49.0760 -8.1750 104° East 500 575 45,000  Level FlightAware ADS-B
Sun 12:34:39 PM 49.0600 -8.0800 104° East 499 574 45,000  Level FlightAware ADS-B
Sun 12:34:44 PM 49.0554 -8.0554 104° East 482 555 45,000  Level FlightAware UK
Sun 12:35:14 PM 49.0377 -7.9531 104° East 482 555 45,000  Level FlightAware UK
Sun 12:35:27 PM 49.0290 -7.9150 104° East 497 572 45,000  Level FlightAware ADS-B
Sun 12:36:08 PM 48.9930 -7.7880 113° Southeast 494 568 45,000  Level FlightAware ADS-B
Sun 12:36:39 PM 48.9620 -7.6880 113° Southeast 492 566 45,000  Level FlightAware ADS-B
Sun 12:36:44 PM 48.9570 -7.6692 113° Southeast 484 557 45,000  Level FlightAware UK
Sun 12:37:14 PM 48.9273 -7.5751 113° Southeast 482 555 45,000  Level FlightAware UK
Sun 12:37:14 PM 48.9290 -7.5810 113° Southeast 489 563 45,000  Level FlightAware ADS-B
Sun 12:37:44 PM 48.8983 -7.4816 113° Southeast 480 552 45,000  Level FlightAware UK
Sun 12:37:55 PM 48.8910 -7.4570 113° Southeast 488 562 45,000  Level FlightAware ADS-B
Sun 12:38:25 PM 48.8620 -7.3650 116° Southeast 489 563 45,000  Level FlightAware ADS-B
Sun 12:39:04 PM 48.8220 -7.2400 116° Southeast 491 565 45,000  Level FlightAware ADS-B
Sun 12:39:39 PM 48.7900 -7.1370 115° Southeast 493 567 45,000  Level FlightAware ADS-B
Sun 12:39:54 PM 48.7730 -7.0850 116° Southeast 493 567 45,000  Level FlightAware ADS-B
Sun 12:40:40 PM 48.7400 -6.9800 116° Southeast 492 566 45,000  Level FlightAware ADS-B
Sun 12:40:44 PM 48.7221 -6.9246 116° Southeast 482 555 45,000  Level FlightAware UK
Sun 12:41:15 PM 48.6921 -6.8309 116° Southeast 482 555 45,000  Level FlightAware UK
Sun 12:41:20 PM 48.6880 -6.8170 116° Southeast 491 565 45,000  Level FlightAware ADS-B
Sun 12:41:51 PM 48.6570 -6.7200 116° Southeast 491 565 45,000  Level FlightAware ADS-B
Sun 12:42:20 PM 48.6280 -6.6310 116° Southeast 492 566 45,000  Level FlightAware ADS-B
Sun 12:42:45 PM 48.6034 -6.5540 116° Southeast 482 555 45,000  Level FlightAware UK
Sun 12:43:15 PM 48.5727 -6.4594 116° Southeast 482 555 45,000  Level FlightAware UK
Sun 12:43:34 PM 48.5560 -6.4060 116° Southeast 493 567 45,000  Level FlightAware ADS-B
Sun 12:44:05 PM 48.5230 -6.3070 117° Southeast 494 568 45,000  Level FlightAware ADS-B
Sun 12:44:41 PM 48.4870 -6.1970 116° Southeast 495 570 45,000  Level FlightAware ADS-B
Sun 12:45:17 PM 48.4510 -6.0860 116° Southeast 494 568 45,000  Level FlightAware ADS-B
Sun 12:45:51 PM 48.4150 -5.9790 116° Southeast 480 552 45,000  Level FlightAware UK
Sun 12:45:51 PM 48.4160 -5.9810 116° Southeast 493 567 45,000  Level FlightAware ADS-B
Sun 12:46:21 PM 48.3846 -5.8871 116° Southeast 478 550 45,000  Level FlightAware UK
Sun 12:46:33 PM 48.3730 -5.8530 116° Southeast 493 567 45,000  Level FlightAware ADS-B
Sun 12:47:09 PM 48.3370 -5.7430 116° Southeast 495 570 45,000  Level FlightAware ADS-B
Sun 12:47:41 PM 48.3030 -5.6420 117° Southeast 496 571 45,000  Level FlightAware ADS-B
Sun 12:48:18 PM 48.2660 -5.5310 117° Southeast 496 571 45,000  Level FlightAware ADS-B
Sun 12:48:21 PM 48.2618 -5.5187 117° Southeast 482 555 45,000  Level FlightAware UK
Sun 12:48:51 PM 48.2309 -5.4267 117° Southeast 480 552 45,000  Level FlightAware UK
Sun 12:48:52 PM 48.2300 -5.4240 117° Southeast 496 571 45,000  Level FlightAware ADS-B
Sun 12:49:28 PM 48.1940 -5.3160 117° Southeast 496 571 45,000  Level FlightAware ADS-B
Sun 12:50:04 PM 48.1560 -5.2060 117° Southeast 496 571 45,000  Level FlightAware ADS-B
Sun 12:50:41 PM 48.1180 -5.0970 118° Southeast 496 571 45,000  Level FlightAware ADS-B
Sun 12:51:14 PM 48.0830 -4.9930 117° Southeast 495 570 45,000  Level FlightAware ADS-B
Sun 12:51:50 PM 48.0450 -4.8830 117° Southeast 495 570 45,000  Level FlightAware ADS-B
Sun 12:52:22 PM 48.0120 -4.7870 117° Southeast 496 571 45,000  Level FlightAware ADS-B
Sun 12:52:52 PM 47.9790 -4.6930 118° Southeast 497 572 45,000  Level FlightAware ADS-B
Sun 12:53:32 PM 47.9380 -4.5730 117° Southeast 499 574 45,000  Level FlightAware ADS-B
Sun 12:54:06 PM 47.9010 -4.4700 118° Southeast 500 575 45,000  Level FlightAware ADS-B
Sun 12:54:42 PM 47.8630 -4.3600 117° Southeast 498 573 45,000  Level FlightAware ADS-B
Sun 12:55:18 PM 47.8250 -4.2520 118° Southeast 496 571 45,000  Level FlightAware ADS-B
Sun 12:55:50 PM 47.7900 -4.1550 118° Southeast 498 573 45,000  Level FlightAware ADS-B
Sun 12:56:30 PM 47.7470 -4.0350 118° Southeast 499 574 45,000  Level FlightAware ADS-B
Sun 12:57:04 PM 47.7100 -3.9310 118° Southeast 500 575 45,000  Level FlightAware ADS-B
Sun 12:57:40 PM 47.6710 -3.8230 118° Southeast 501 577 45,000  Level FlightAware ADS-B
Sun 12:58:12 PM 47.6370 -3.7270 118° Southeast 499 574 45,000  Level FlightAware ADS-B
Sun 12:58:48 PM 47.5970 -3.6180 119° Southeast 497 572 45,000  Level FlightAware ADS-B
Sun 12:59:22 PM 47.5610 -3.5180 118° Southeast 498 573 45,000  Level FlightAware ADS-B
Sun 12:59:54 PM 47.5260 -3.4200 118° Southeast 498 573 45,000  Level FlightAware ADS-B
Sun 01:00:42 PM 47.4860 -3.3130 119° Southeast 498 573 45,000  Level FlightAware ADS-B
Sun 01:01:23 PM 47.4290 -3.1570 118° Southeast 495 570 45,000  Level FlightAware ADS-B
Sun 01:02:01 PM 47.3880 -3.0460 119° Southeast 494 568 45,000  Level FlightAware ADS-B
Sun 01:02:37 PM 47.3500 -2.9420 118° Southeast 495 570 45,000  Level FlightAware ADS-B
Sun 01:02:54 PM 47.3310 -2.8920 119° Southeast 495 570 45,000  Level FlightAware ADS-B
Sun 01:03:55 PM 47.2630 -2.7090 119° Southeast 492 566 45,000  Level FlightAware ADS-B
Sun 01:04:29 PM 47.2260 -2.6100 119° Southeast 493 567 45,000  Level FlightAware ADS-B
Sun 01:05:05 PM 47.1860 -2.5050 119° Southeast 497 572 45,000  Level FlightAware ADS-B
Sun 01:05:41 PM 47.1460 -2.4010 119° Southeast 499 574 45,000  Level FlightAware ADS-B
Sun 01:06:05 PM 47.1190 -2.3280 119° Southeast 496 571 45,000  Level FlightAware ADS-B
Sun 01:06:45 PM 47.0740 -2.2100 119° Southeast 494 568 45,000  Level FlightAware ADS-B
Sun 01:07:21 PM 47.0340 -2.1070 120° Southeast 493 567 45,000  Level FlightAware ADS-B
Sun 01:07:53 PM 46.9970 -2.0100 119° Southeast 495 570 45,000  Level FlightAware ADS-B
Sun 01:08:29 PM 46.9570 -1.9080 120° Southeast 496 571 45,000  Level FlightAware ADS-B
Sun 01:09:05 PM 46.9180 -1.8060 119° Southeast 492 566 45,000  Level FlightAware ADS-B
Sun 01:09:37 PM 46.8810 -1.7120 120° Southeast 491 565 45,000  Level FlightAware ADS-B
Sun 01:10:13 PM 46.8400 -1.6050 119° Southeast 493 567 45,000  Level FlightAware ADS-B
Sun 01:10:51 PM 46.7970 -1.4950 120° Southeast 496 571 45,000  Level FlightAware ADS-B
Sun 01:11:25 PM 46.7580 -1.3960 120° Southeast 497 572 45,000  Level FlightAware ADS-B
Sun 01:11:57 PM 46.7290 -1.3210 119° Southeast 495 570 45,000  Level FlightAware ADS-B
Sun 01:12:31 PM 46.6850 -1.2090 120° Southeast 489 563 45,000  Level FlightAware ADS-B
Sun 01:13:07 PM 46.6430 -1.1030 120° Southeast 487 560 45,000  Level FlightAware ADS-B
Sun 01:13:45 PM 46.6000 -0.9960 120° Southeast 488 562 45,000  Level FlightAware ADS-B
Sun 01:14:17 PM 46.5630 -0.9040 120° Southeast 492 566 45,000  Level FlightAware ADS-B
Sun 01:14:53 PM 46.5230 -0.8040 120° Southeast 492 566 45,000  Level FlightAware ADS-B
Sun 01:15:29 PM 46.4830 -0.6990 119° Southeast 494 568 45,000  Level FlightAware ADS-B
Sun 01:16:05 PM 46.4590 -0.5830 107° East 500 575 45,000  Level FlightAware ADS-B
Sun 01:16:44 PM 46.4450 -0.4620 99° East 498 573 45,000  Level FlightAware ADS-B
Sun 01:17:19 PM 46.4310 -0.3460 100° East 496 571 45,000  Level FlightAware ADS-B
Sun 01:17:49 PM 46.4190 -0.2520 100° East 498 573 45,000  Level FlightAware ADS-B
Sun 01:18:29 PM 46.4020 -0.1130 100° East 501 577 45,000  Level FlightAware ADS-B
Sun 01:18:59 PM 46.3910 -0.0240 100° East 499 574 45,000  Level FlightAware ADS-B
Sun 01:19:39 PM 46.3740 0.1080 101° East 496 571 45,000  Level FlightAware ADS-B
Sun 01:19:49 PM 46.3710 0.1380 98° East 496 571 45,000  Level FlightAware ADS-B
Sun 01:20:44 PM 46.3560 0.2580 100° East 497 572 45,000  Level FlightAware ADS-B
Sun 01:21:26 PM 46.3320 0.4480 100° East 499 574 45,000  Level FlightAware ADS-B
Sun 01:22:01 PM 46.3150 0.5790 101° East 496 571 45,000  Level FlightAware ADS-B
Sun 01:22:33 PM 46.3010 0.6830 101° East 496 571 45,000  Level FlightAware ADS-B
Sun 01:23:16 PM 46.2830 0.8200 101° East 499 574 45,000  Level FlightAware ADS-B
Sun 01:23:55 PM 46.2740 0.8890 101° East 500 575 45,000  Level FlightAware ADS-B
Sun 01:24:41 PM 46.2450 1.1020 101° East 496 571 45,000  Level FlightAware ADS-B
Sun 01:25:17 PM 46.2290 1.2180 101° East 495 570 45,000  Level FlightAware ADS-B
Sun 01:25:56 PM 46.2120 1.3450 101° East 498 573 45,000  Level FlightAware ADS-B
Sun 01:26:44 PM 46.1920 1.4950 101° East 497 572 45,000  Level FlightAware ADS-B
Sun 01:27:21 PM 46.1740 1.6210 102° East 495 570 45,000  Level FlightAware ADS-B
Sun 01:27:57 PM 46.1570 1.7390 102° East 492 566 45,000  Level FlightAware ADS-B
Sun 01:28:31 PM 46.1420 1.8480 101° East 492 566 45,000  Level FlightAware ADS-B
Sun 01:29:13 PM 46.1240 1.9780 101° East 494 568 45,000  Level FlightAware ADS-B
Sun 01:29:51 PM 46.1050 2.1030 102° East 494 568 45,000  Level FlightAware ADS-B
Sun 01:30:23 PM 46.0900 2.2070 102° East 494 568 45,000  Level FlightAware ADS-B
Sun 01:30:59 PM 46.0740 2.3220 101° East 493 567 45,000  Level FlightAware ADS-B
Sun 01:31:37 PM 46.0560 2.4430 102° East 493 567 45,000  Level FlightAware ADS-B
Sun 01:32:07 PM 46.0410 2.5390 103° East 496 571 45,000  Level FlightAware ADS-B
Sun 01:32:45 PM 46.0240 2.6590 101° East 503 579 45,000  Level FlightAware ADS-B
Sun 01:33:17 PM 46.0080 2.7670 102° East 506 582 45,000  Level FlightAware ADS-B
Sun 01:33:57 PM 45.9880 2.8970 102° East 498 573 45,000 -686 Level FlightAware ADS-B
Sun 01:34:27 PM 45.9740 2.9900 102° East 494 568 44,200 -1,913 Descending FlightAware ADS-B
Sun 01:35:06 PM 45.9550 3.1160 102° East 503 579 42,800 -2,169 Descending FlightAware ADS-B
Sun 01:35:50 PM 45.9330 3.2590 102° East 500 575 41,200 -2,169 Descending FlightAware ADS-B
Sun 01:36:29 PM 45.9130 3.3840 103° East 500 575 39,800 -2,219 Descending FlightAware ADS-B
Sun 01:37:03 PM 45.8950 3.4990 103° East 501 577 38,500 -2,197 Descending FlightAware ADS-B
Sun 01:37:40 PM 45.8770 3.6130 103° East 502 578 37,200 -1,823 Descending FlightAware ADS-B
Sun 01:38:22 PM 45.8550 3.7490 103° East 500 575 36,100 -1,403 Descending FlightAware ADS-B
Sun 01:38:57 PM 45.8370 3.8660 102° East 504 580 35,400 -1,667 Descending FlightAware ADS-B
Sun 01:39:34 PM 45.8170 3.9860 103° East 507 583 34,100 -2,172 Descending FlightAware ADS-B
Sun 01:39:55 PM 45.8070 4.0580 101° East 508 585 33,300 -2,022 Descending FlightAware ADS-B
Sun 01:41:06 PM 45.7780 4.2800 101° East 508 585 31,000 -1,290 Descending FlightAware ADS-B
Sun 01:41:42 PM 45.7620 4.4060 100° East 510 587 31,000  Level FlightAware ADS-B
Sun 01:42:15 PM 45.7470 4.5180 101° East 508 585 31,000  Level FlightAware ADS-B
Sun 01:42:40 PM 45.7380 4.5880 100° East 509 586 31,000  Level FlightAware ADS-B
Sun 01:43:50 PM 45.7030 4.8290 102° East 510 587 31,000  Level FlightAware ADS-B
Sun 01:44:35 PM 45.6740 4.9700 106° East 506 582 31,000  Level FlightAware ADS-B
Sun 01:45:05 PM 45.6530 5.0720 106° East 505 581 31,000  Level FlightAware ADS-B
Sun 01:45:45 PM 45.6320 5.2030 103° East 506 582 31,000  Level FlightAware ADS-B
Sun 01:46:17 PM 45.6160 5.3030 103° East 504 580 31,000  Level FlightAware ADS-B
Sun 01:46:53 PM 45.5930 5.4250 105° East 504 580 31,000 -243 Level FlightAware ADS-B
Sun 01:47:31 PM 45.5660 5.5430 108° East 505 581 30,700 -1,297 Descending FlightAware ADS-B
Sun 01:48:07 PM 45.5330 5.6550 113° Southeast 501 577 29,400 -2,206 Descending FlightAware ADS-B
Sun 01:48:39 PM 45.4950 5.7420 122° Southeast 498 573 28,200 -2,057 Descending FlightAware ADS-B
Sun 01:49:17 PM 45.4480 5.8430 124° Southeast 486 559 27,000 -1,000 Descending FlightAware ADS-B
Sun 01:49:51 PM 45.4050 5.9360 123° Southeast 489 563 27,000  Level FlightAware ADS-B
Sun 01:50:33 PM 45.3560 6.0510 121° Southeast 490 564 27,000  Level FlightAware ADS-B
Sun 01:51:05 PM 45.3290 6.1460 112° Southeast 489 563 27,000  Level FlightAware ADS-B
Sun 01:51:42 PM 45.3040 6.2560 108° East 489 563 27,000  Level FlightAware ADS-B
Sun 01:52:18 PM 45.2790 6.3680 108° East 491 565 27,000  Level FlightAware ADS-B
Sun 01:52:50 PM 45.2550 6.4690 109° East 491 565 27,000  Level FlightAware ADS-B
Sun 01:53:30 PM 45.2280 6.5880 108° East 492 566 27,000  Level FlightAware ADS-B
Sun 01:54:07 PM 45.2030 6.6950 108° East 491 565 27,000  Level FlightAware ADS-B
Sun 01:54:42 PM 45.1760 6.8080 109° East 490 564 27,000  Level FlightAware ADS-B
Sun 01:55:18 PM 45.1500 6.9220 108° East 492 566 27,000 -417 Level FlightAware ADS-B
Sun 01:55:54 PM 45.1250 7.0290 108° East 490 564 26,500 -1,286 Descending FlightAware ADS-B
Sun 01:56:28 PM 45.1010 7.1300 109° East 478 550 25,500 -1,286 Descending FlightAware ADS-B
Sun 01:57:04 PM 45.0760 7.2370 108° East 474 545 25,000 -441 Descending FlightAware ADS-B
Sun 01:57:36 PM 45.0540 7.3300 108° East 474 545 25,000  Level FlightAware ADS-B
Sun 01:58:12 PM 45.0300 7.4330 108° East 477 549 25,000 -917 Level FlightAware ADS-B
Sun 01:58:48 PM 45.0150 7.5460 101° East 473 544 23,900 -2,055 Descending FlightAware ADS-B
Sun 01:59:25 PM 45.0040 7.6550 98° East 463 533 22,500 -2,294 Descending FlightAware ADS-B
Sun 01:59:56 PM 44.9950 7.7470 98° East 459 528 21,300 -1,200 Descending FlightAware ADS-B
Sun 02:00:45 PM 44.9860 7.8450 97° East 452 520 20,900 -886 Descending FlightAware ADS-B
Sun 02:01:24 PM 44.9710 8.0030 98° East 444 511 20,000 -1,120 Descending FlightAware ADS-B
Sun 02:02:00 PM 44.9820 8.1030 81° East 447 514 19,500 -1,976 Descending FlightAware ADS-B
Sun 02:02:46 PM 45.0330 8.2130 57° Northeast 427 491 17,300 -2,763 Descending FlightAware ADS-B
Sun 02:03:16 PM 45.0680 8.2750 51° Northeast 400 460 16,000 -2,325 Descending FlightAware ADS-B
Sun 02:04:06 PM 45.1120 8.3540 52° Northeast 372 428 14,200 -2,682 Descending FlightAware ADS-B
Sun 02:04:41 PM 45.1610 8.4400 51° Northeast 349 402 12,200 -2,838 Descending FlightAware ADS-B
Sun 02:05:20 PM 45.1980 8.5060 51° Northeast 320 368 10,700 -2,156 Descending FlightAware ADS-B
Sun 02:05:45 PM 45.2190 8.5440 52° Northeast 304 350 9,900 -2,087 Descending FlightAware ADS-B
Sun 02:06:06 PM 45.2380 8.5780 52° Northeast 291 335 9,100 -2,167 Descending FlightAware ADS-B
Sun 02:06:21 PM 45.2510 8.6010 51° Northeast 286 329 8,600 -2,000 Descending FlightAware ADS-B
Sun 02:06:45 PM 45.2690 8.6340 52° Northeast 281 323 7,800 -1,920 Descending FlightAware ADS-B
Sun 02:07:11 PM 45.2920 8.6710 49° Northeast 274 315 7,000 -2,000 Descending FlightAware ADS-B
Sun 02:07:15 PM 45.2960 8.6760 41° Northeast 271 312 6,800 -2,182 Descending FlightAware ADS-B
Sun 02:07:22 PM 45.3040 8.6810 24° Northeast 269 310 6,600 -1,714 Descending FlightAware ADS-B
Sun 02:07:43 PM 45.3260 8.6990 30° Northeast 264 304 6,000 -1,733 Descending FlightAware ADS-B
Sun 02:08:07 PM 45.3490 8.7210 34° Northeast 255 293 5,300 -1,800 Descending FlightAware ADS-B
Sun 02:08:23 PM 45.3650 8.7370 35° Northeast 251 289 4,800 -1,756 Descending FlightAware ADS-B
Sun 02:08:48 PM 45.3890 8.7610 35° Northeast 246 283 4,100 -1,588 Descending FlightAware ADS-B
Sun 02:08:57 PM 45.3970 8.7690 35° Northeast 243 280 3,900 -444 Descending FlightAware ADS-B
Sun 02:09:15 PM 45.4130 8.7830 32° Northeast 214 246 3,900  Level FlightAware ADS-B
Sun 02:09:23 PM 45.4200 8.7850 11° North 197 227 3,900  Level FlightAware ADS-B
Sun 02:09:50 PM 45.4420 8.7750 342° North 177 204 3,900 -240 Level FlightAware ADS-B
Sun 02:10:13 PM 45.4600 8.7690 347° North 177 204 3,700 -750 Descending FlightAware ADS-B
Sun 02:10:30 PM 45.4720 8.7660 350° North 174 200 3,400 -1,091 Descending FlightAware ADS-B
Sun 02:10:46 PM 45.4830 8.7630 349° North 174 200 3,100 -955 Descending FlightAware ADS-B
Sun 02:11:14 PM 45.5030 8.7580 350° North 173 199 2,700 -933 Descending FlightAware ADS-B
Sun 02:11:31 PM 45.5210 8.7530 349° North 173 199 2,400 -882 Descending FlightAware ADS-B
Sun 02:11:48 PM 45.5340 8.7490 348° North 172 198 2,200 -933 Descending FlightAware ADS-B
Sun 02:12:16 PM 45.5550 8.7440 351° North 138 159 1,700 -783 Descending FlightAware ADS-B
Sun 02:12:34 PM 45.5650 8.7410 348° North 127 146 1,600 -522 Descending FlightAware ADS-B
Sun 02:13:02 PM 45.5810 8.7360 348° North 126 145 1,300 -625 Descending FlightAware ADS-B
Sun 02:13:22 PM 45.5920 8.7330 349° North 126 145 1,100 -686 Descending FlightAware ADS-B
Sun 02:13:37 PM 45.6010 8.7310 351° North 125 144 900 -286 Descending FlightAware ADS-B
Sun 02:14:04 PM 45.6150 8.7270 349° North 125 144 900  Level FlightAware ADS-B
Sun 02:16:00 PM 45.6167 8.7167 49° Northeast  Level FlightAware Approximate
Sun 02:17:00 PM 45.6306 8.7281 49° Northeast  Level Estimated
Sun 02:18:00 PM 45.6306 8.7281 49° Northeast  Level Estimated
Sun 02:19:00 PM 45.6306 8.7281 49° Northeast  Level Estimated
Sun 02:20:00 PM 45.6306 8.7281 49° Northeast  Level Estimated
Sun 02:21:00 PM 45.6306 8.7281 49° Northeast  Level Estimated
Sun 02:22:00 PM 45.6306 8.7281 49° Northeast  Level Estimated
Sun 02:23:00 PM 45.6306 8.7281 49° Northeast  Level Estimated
Sun 02:24:00 PM 45.6306 8.7281 49° Northeast  Level Estimated
Sun 02:25:00 PM 45.6306 8.7281 49° Northeast  Level Estimated
Sun 02:26:00 PM 45.6306 8.7281 49° Northeast  Level Estimated
Sun 02:27:00 PM 45.6306 8.7281 49° Northeast  Level Estimated
Sun 02:28:00 PM 45.6306 8.7281 49° Northeast  Level Estimated
Sun 02:29:00 PM 45.6306 8.7281 49° Northeast  Level Estimated

Login

Don't have an account? Register now (free) for customized features, flight alerts, and more!